ENHF

Details ICAO ENHF (HFT)
Name Hammerfest
Region Norway
Timezone Europe/Oslo (UTC+2.0)
Plans Departing 49
Arriving 72
Stats Elevation 266 ft / 81 m (AMSL)
Location 70.679600° 23.668200°
Runways 1
Magnetic Variation 12.067° E
Sunrise 2018-10-17 05:50:30 UTC / 2018-10-17 07:50:30 Local
Sunset 2018-10-17 14:33:13 UTC / 2018-10-17 16:33:13 Local
Advertisement - Login to hide

Runways

ID Width Length Bearing (true/mag) Surface Threshold Overrun Markings Lighting
05 98 ft / 30 m 2,899 ft / 884 m 55.93° / 43.86° ASPHALT 135 ft / 41 m 0 ft / 0 m APP CENTERLINE EDGE THRESHOLD RAIL
23 98 ft / 30 m 2,899 ft / 884 m 235.95° / 223.88° ASPHALT 135 ft / 41 m 0 ft / 0 m APP CENTERLINE EDGE THRESHOLD RAIL

Approach Navaids

Runway Type Ident Frequency Range Bearing (true/mag) Slope Elevation
05 DME HA 111.35 MHz 18 nm / 33 km - - 262 ft / 80 m (AMSL)
05 LOC-ILS HA 111.35 MHz 18 nm / 33 km 54.60° / 42.53° - 262 ft / 80 m (AMSL)
23 DME HF 110.70 MHz 18 nm / 33 km - - 262 ft / 80 m (AMSL)
23 LOC-ILS HF 110.70 MHz 18 nm / 33 km 234.60° / 222.53° - 262 ft / 80 m (AMSL)

Map

Weather


0- 5 10 15 20 25 30 35+ Temperature / °C

Clouds and Precipitation
Forecast for 2018-10-17 00:00 UTC. Updated an hour ago

Ground ~20,000 ft ~40,000 ft Winds

METAR

ENHF 162220Z 23012KT 9999 VCSH FEW015TCU BKN025 07/04 Q1010 RERA RMK WIND 1254FT 26020KT

TAF

Not found
Warning: Do not use this data for real-world aviation or navigation. No guarantee of current accuracy is given.